sensor_id;sensor_type;location;lat;lon;timestamp;P1;durP1;ratioP1;P2;durP2;ratioP2
25511;SDS011;13414;44.534;18.700;2023-02-19T00:00:58;339.65;;;190.75;;
25511;SDS011;13414;44.534;18.700;2023-02-19T00:03:28;329.67;;;186.43;;
25511;SDS011;13414;44.534;18.700;2023-02-19T00:05:55;335.77;;;188.32;;
25511;SDS011;13414;44.534;18.700;2023-02-19T00:08:27;349.33;;;201.75;;
25511;SDS011;13414;44.534;18.700;2023-02-19T00:10:58;365.13;;;207.75;;
25511;SDS011;13414;44.534;18.700;2023-02-19T00:13:26;342.05;;;194.43;;
25511;SDS011;13414;44.534;18.700;2023-02-19T00:15:55;326.35;;;191.73;;
25511;SDS011;13414;44.534;18.700;2023-02-19T00:18:23;322.25;;;181.13;;
25511;SDS011;13414;44.534;18.700;2023-02-19T00:20:50;305.08;;;170.70;;
25511;SDS011;13414;44.534;18.700;2023-02-19T00:23:18;269.25;;;153.00;;
25511;SDS011;13414;44.534;18.700;2023-02-19T00:25:45;248.27;;;141.88;;
25511;SDS011;13414;44.534;18.700;2023-02-19T00:28:12;253.18;;;140.73;;
25511;SDS011;13414;44.534;18.700;2023-02-19T00:30:40;250.13;;;140.68;;
25511;SDS011;13414;44.534;18.700;2023-02-19T00:33:09;203.38;;;117.75;;
25511;SDS011;13414;44.534;18.700;2023-02-19T00:35:36;191.52;;;111.60;;
25511;SDS011;13414;44.534;18.700;2023-02-19T00:38:04;191.90;;;108.82;;
25511;SDS011;13414;44.534;18.700;2023-02-19T00:40:31;195.13;;;109.28;;
25511;SDS011;13414;44.534;18.700;2023-02-19T00:42:58;207.70;;;115.85;;
25511;SDS011;13414;44.534;18.700;2023-02-19T00:45:26;218.73;;;127.38;;
25511;SDS011;13414;44.534;18.700;2023-02-19T00:47:53;229.00;;;134.50;;
25511;SDS011;13414;44.534;18.700;2023-02-19T00:50:22;215.15;;;134.93;;
25511;SDS011;13414;44.534;18.700;2023-02-19T00:52:50;226.60;;;139.95;;
25511;SDS011;13414;44.534;18.700;2023-02-19T00:55:17;247.85;;;151.13;;
25511;SDS011;13414;44.534;18.700;2023-02-19T00:57:44;267.90;;;162.32;;
25511;SDS011;13414;44.534;18.700;2023-02-19T01:00:12;265.77;;;159.48;;
25511;SDS011;13414;44.534;18.700;2023-02-19T01:02:40;262.98;;;157.50;;
25511;SDS011;13414;44.534;18.700;2023-02-19T01:05:07;244.82;;;149.32;;
25511;SDS011;13414;44.534;18.700;2023-02-19T01:07:36;218.10;;;135.40;;
25511;SDS011;13414;44.534;18.700;2023-02-19T01:10:04;231.75;;;139.75;;
25511;SDS011;13414;44.534;18.700;2023-02-19T01:12:32;227.00;;;135.82;;
25511;SDS011;13414;44.534;18.700;2023-02-19T01:14:59;223.95;;;133.57;;
25511;SDS011;13414;44.534;18.700;2023-02-19T01:17:27;235.77;;;139.43;;
25511;SDS011;13414;44.534;18.700;2023-02-19T01:19:54;237.05;;;140.80;;
25511;SDS011;13414;44.534;18.700;2023-02-19T01:22:21;232.40;;;136.15;;
25511;SDS011;13414;44.534;18.700;2023-02-19T01:24:51;222.57;;;126.70;;
25511;SDS011;13414;44.534;18.700;2023-02-19T01:27:18;233.05;;;129.63;;
25511;SDS011;13414;44.534;18.700;2023-02-19T01:29:46;224.88;;;118.32;;
25511;SDS011;13414;44.534;18.700;2023-02-19T01:32:13;205.73;;;116.45;;
25511;SDS011;13414;44.534;18.700;2023-02-19T01:34:41;224.68;;;120.90;;
25511;SDS011;13414;44.534;18.700;2023-02-19T01:37:08;201.60;;;111.10;;
25511;SDS011;13414;44.534;18.700;2023-02-19T01:39:36;221.00;;;120.85;;
25511;SDS011;13414;44.534;18.700;2023-02-19T01:42:06;240.20;;;132.82;;
25511;SDS011;13414;44.534;18.700;2023-02-19T01:47:51;242.88;;;135.35;;
25511;SDS011;13414;44.534;18.700;2023-02-19T01:50:28;245.65;;;134.85;;
25511;SDS011;13414;44.534;18.700;2023-02-19T01:52:58;246.80;;;134.57;;
25511;SDS011;13414;44.534;18.700;2023-02-19T01:55:30;227.95;;;123.30;;
25511;SDS011;13414;44.534;18.700;2023-02-19T01:57:59;215.32;;;117.43;;
25511;SDS011;13414;44.534;18.700;2023-02-19T02:00:28;200.98;;;113.05;;
25511;SDS011;13414;44.534;18.700;2023-02-19T02:02:57;179.50;;;104.10;;
25511;SDS011;13414;44.534;18.700;2023-02-19T02:05:35;183.75;;;105.93;;
25511;SDS011;13414;44.534;18.700;2023-02-19T02:08:09;179.45;;;98.65;;
25511;SDS011;13414;44.534;18.700;2023-02-19T02:10:57;184.50;;;103.30;;
25511;SDS011;13414;44.534;18.700;2023-02-19T02:13:27;179.25;;;102.65;;
25511;SDS011;13414;44.534;18.700;2023-02-19T02:15:58;176.38;;;100.13;;
25511;SDS011;13414;44.534;18.700;2023-02-19T02:18:34;184.15;;;105.97;;
25511;SDS011;13414;44.534;18.700;2023-02-19T02:21:30;180.60;;;102.57;;
25511;SDS011;13414;44.534;18.700;2023-02-19T02:24:30;161.77;;;98.05;;
25511;SDS011;13414;44.534;18.700;2023-02-19T02:30:10;150.95;;;96.20;;
25511;SDS011;13414;44.534;18.700;2023-02-19T02:32:52;167.00;;;103.20;;
25511;SDS011;13414;44.534;18.700;2023-02-19T02:35:24;154.45;;;97.38;;
25511;SDS011;13414;44.534;18.700;2023-02-19T02:37:56;167.88;;;103.18;;
25511;SDS011;13414;44.534;18.700;2023-02-19T02:40:27;159.73;;;99.70;;
25511;SDS011;13414;44.534;18.700;2023-02-19T02:42:55;174.82;;;104.93;;
25511;SDS011;13414;44.534;18.700;2023-02-19T02:45:28;146.52;;;94.00;;
25511;SDS011;13414;44.534;18.700;2023-02-19T02:48:19;138.68;;;86.13;;
25511;SDS011;13414;44.534;18.700;2023-02-19T02:50:52;144.48;;;86.85;;
25511;SDS011;13414;44.534;18.700;2023-02-19T02:53:26;127.75;;;77.32;;
25511;SDS011;13414;44.534;18.700;2023-02-19T02:56:14;128.90;;;80.03;;
25511;SDS011;13414;44.534;18.700;2023-02-19T02:58:44;140.73;;;87.55;;
25511;SDS011;13414;44.534;18.700;2023-02-19T03:01:17;139.10;;;87.38;;
25511;SDS011;13414;44.534;18.700;2023-02-19T03:04:07;149.68;;;90.38;;
25511;SDS011;13414;44.534;18.700;2023-02-19T03:06:38;154.20;;;92.70;;
25511;SDS011;13414;44.534;18.700;2023-02-19T03:09:10;149.02;;;88.05;;
25511;SDS011;13414;44.534;18.700;2023-02-19T03:11:41;152.05;;;89.50;;
25511;SDS011;13414;44.534;18.700;2023-02-19T03:14:34;146.93;;;87.43;;
25511;SDS011;13414;44.534;18.700;2023-02-19T03:17:23;150.45;;;86.65;;
25511;SDS011;13414;44.534;18.700;2023-02-19T03:20:13;143.55;;;86.25;;
25511;SDS011;13414;44.534;18.700;2023-02-19T03:22:43;144.95;;;84.18;;
25511;SDS011;13414;44.534;18.700;2023-02-19T03:25:12;143.93;;;80.63;;
25511;SDS011;13414;44.534;18.700;2023-02-19T03:28:01;140.50;;;78.90;;
25511;SDS011;13414;44.534;18.700;2023-02-19T03:30:32;141.98;;;80.43;;
25511;SDS011;13414;44.534;18.700;2023-02-19T03:33:06;140.60;;;82.30;;
25511;SDS011;13414;44.534;18.700;2023-02-19T03:35:39;133.05;;;75.25;;
25511;SDS011;13414;44.534;18.700;2023-02-19T03:38:10;132.77;;;75.45;;
25511;SDS011;13414;44.534;18.700;2023-02-19T03:40:47;132.98;;;73.05;;
25511;SDS011;13414;44.534;18.700;2023-02-19T03:43:20;140.57;;;75.82;;
25511;SDS011;13414;44.534;18.700;2023-02-19T03:45:54;127.25;;;68.88;;
25511;SDS011;13414;44.534;18.700;2023-02-19T03:48:31;114.90;;;60.65;;
25511;SDS011;13414;44.534;18.700;2023-02-19T03:51:08;108.13;;;58.50;;
25511;SDS011;13414;44.534;18.700;2023-02-19T03:53:48;87.53;;;50.15;;
25511;SDS011;13414;44.534;18.700;2023-02-19T03:56:23;103.03;;;58.58;;
25511;SDS011;13414;44.534;18.700;2023-02-19T03:58:55;116.03;;;67.18;;
25511;SDS011;13414;44.534;18.700;2023-02-19T04:01:29;123.80;;;71.03;;
25511;SDS011;13414;44.534;18.700;2023-02-19T04:04:05;116.22;;;70.25;;
25511;SDS011;13414;44.534;18.700;2023-02-19T04:06:40;123.68;;;74.72;;
25511;SDS011;13414;44.534;18.700;2023-02-19T04:09:10;113.28;;;66.68;;
25511;SDS011;13414;44.534;18.700;2023-02-19T04:11:43;105.07;;;63.67;;
25511;SDS011;13414;44.534;18.700;2023-02-19T04:14:13;102.43;;;58.92;;
25511;SDS011;13414;44.534;18.700;2023-02-19T04:16:46;105.13;;;64.68;;
25511;SDS011;13414;44.534;18.700;2023-02-19T04:19:19;104.15;;;64.93;;
25511;SDS011;13414;44.534;18.700;2023-02-19T04:21:49;98.05;;;59.95;;
25511;SDS011;13414;44.534;18.700;2023-02-19T04:24:20;95.38;;;59.88;;
25511;SDS011;13414;44.534;18.700;2023-02-19T04:26:52;98.05;;;60.20;;
25511;SDS011;13414;44.534;18.700;2023-02-19T04:29:20;95.20;;;61.22;;
25511;SDS011;13414;44.534;18.700;2023-02-19T04:31:47;112.03;;;76.68;;
25511;SDS011;13414;44.534;18.700;2023-02-19T04:34:15;96.50;;;66.35;;
25511;SDS011;13414;44.534;18.700;2023-02-19T04:36:44;91.63;;;61.70;;
25511;SDS011;13414;44.534;18.700;2023-02-19T04:39:11;89.03;;;56.90;;
25511;SDS011;13414;44.534;18.700;2023-02-19T04:41:39;87.05;;;56.83;;
25511;SDS011;13414;44.534;18.700;2023-02-19T04:44:06;93.35;;;59.13;;
25511;SDS011;13414;44.534;18.700;2023-02-19T04:46:34;91.03;;;55.85;;
25511;SDS011;13414;44.534;18.700;2023-02-19T04:49:01;95.18;;;55.25;;
25511;SDS011;13414;44.534;18.700;2023-02-19T04:51:28;93.82;;;54.22;;
25511;SDS011;13414;44.534;18.700;2023-02-19T04:53:57;87.45;;;50.72;;
25511;SDS011;13414;44.534;18.700;2023-02-19T04:56:25;87.78;;;50.35;;
25511;SDS011;13414;44.534;18.700;2023-02-19T04:58:52;89.55;;;50.80;;
25511;SDS011;13414;44.534;18.700;2023-02-19T05:01:20;82.57;;;49.97;;
25511;SDS011;13414;44.534;18.700;2023-02-19T05:03:49;87.10;;;49.38;;
25511;SDS011;13414;44.534;18.700;2023-02-19T05:06:16;78.68;;;46.88;;
25511;SDS011;13414;44.534;18.700;2023-02-19T05:08:44;72.18;;;41.70;;
25511;SDS011;13414;44.534;18.700;2023-02-19T05:11:12;77.60;;;44.53;;
25511;SDS011;13414;44.534;18.700;2023-02-19T05:13:40;88.43;;;50.67;;
25511;SDS011;13414;44.534;18.700;2023-02-19T05:16:09;95.00;;;54.53;;
25511;SDS011;13414;44.534;18.700;2023-02-19T05:18:40;92.57;;;52.35;;
25511;SDS011;13414;44.534;18.700;2023-02-19T05:21:08;87.63;;;51.95;;
25511;SDS011;13414;44.534;18.700;2023-02-19T05:23:36;85.97;;;50.58;;
25511;SDS011;13414;44.534;18.700;2023-02-19T05:26:04;83.70;;;49.00;;
25511;SDS011;13414;44.534;18.700;2023-02-19T05:28:34;78.43;;;47.42;;
25511;SDS011;13414;44.534;18.700;2023-02-19T05:31:05;80.25;;;48.85;;
25511;SDS011;13414;44.534;18.700;2023-02-19T05:33:34;76.57;;;47.17;;
25511;SDS011;13414;44.534;18.700;2023-02-19T05:36:03;83.18;;;47.40;;
25511;SDS011;13414;44.534;18.700;2023-02-19T05:38:32;79.20;;;47.30;;
25511;SDS011;13414;44.534;18.700;2023-02-19T05:41:05;83.85;;;49.72;;
25511;SDS011;13414;44.534;18.700;2023-02-19T05:43:35;87.35;;;51.70;;
25511;SDS011;13414;44.534;18.700;2023-02-19T05:46:03;115.75;;;65.40;;
25511;SDS011;13414;44.534;18.700;2023-02-19T05:48:31;116.50;;;71.90;;
25511;SDS011;13414;44.534;18.700;2023-02-19T05:51:02;120.18;;;71.50;;
25511;SDS011;13414;44.534;18.700;2023-02-19T05:53:30;109.43;;;69.43;;
25511;SDS011;13414;44.534;18.700;2023-02-19T05:55:58;104.03;;;65.65;;
25511;SDS011;13414;44.534;18.700;2023-02-19T05:58:25;112.22;;;72.40;;
25511;SDS011;13414;44.534;18.700;2023-02-19T06:00:54;109.15;;;66.95;;
25511;SDS011;13414;44.534;18.700;2023-02-19T06:03:22;104.97;;;66.40;;
25511;SDS011;13414;44.534;18.700;2023-02-19T06:05:49;108.15;;;68.97;;
25511;SDS011;13414;44.534;18.700;2023-02-19T06:08:17;124.57;;;73.28;;
25511;SDS011;13414;44.534;18.700;2023-02-19T06:10:44;106.22;;;66.38;;
25511;SDS011;13414;44.534;18.700;2023-02-19T06:13:11;96.15;;;60.13;;
25511;SDS011;13414;44.534;18.700;2023-02-19T06:15:39;103.28;;;63.47;;
25511;SDS011;13414;44.534;18.700;2023-02-19T06:18:08;112.22;;;68.85;;
25511;SDS011;13414;44.534;18.700;2023-02-19T06:20:35;105.65;;;67.93;;
25511;SDS011;13414;44.534;18.700;2023-02-19T06:23:03;107.80;;;68.78;;
25511;SDS011;13414;44.534;18.700;2023-02-19T06:25:30;113.88;;;72.13;;
25511;SDS011;13414;44.534;18.700;2023-02-19T06:27:59;103.25;;;66.32;;
25511;SDS011;13414;44.534;18.700;2023-02-19T06:30:26;98.97;;;62.47;;
25511;SDS011;13414;44.534;18.700;2023-02-19T06:32:54;102.53;;;65.55;;
25511;SDS011;13414;44.534;18.700;2023-02-19T06:35:23;104.55;;;64.75;;
25511;SDS011;13414;44.534;18.700;2023-02-19T06:37:50;103.07;;;65.30;;
25511;SDS011;13414;44.534;18.700;2023-02-19T06:40:18;118.07;;;69.63;;
25511;SDS011;13414;44.534;18.700;2023-02-19T06:42:45;123.57;;;70.28;;
25511;SDS011;13414;44.534;18.700;2023-02-19T06:45:13;106.07;;;61.63;;
25511;SDS011;13414;44.534;18.700;2023-02-19T06:47:40;118.43;;;66.50;;
25511;SDS011;13414;44.534;18.700;2023-02-19T06:50:08;107.25;;;61.90;;
25511;SDS011;13414;44.534;18.700;2023-02-19T06:52:37;123.55;;;67.93;;
25511;SDS011;13414;44.534;18.700;2023-02-19T06:55:04;129.60;;;72.53;;
25511;SDS011;13414;44.534;18.700;2023-02-19T06:57:32;138.43;;;75.18;;
25511;SDS011;13414;44.534;18.700;2023-02-19T06:59:59;127.70;;;74.88;;
25511;SDS011;13414;44.534;18.700;2023-02-19T07:02:26;111.38;;;65.20;;
25511;SDS011;13414;44.534;18.700;2023-02-19T07:04:54;121.40;;;69.63;;
25511;SDS011;13414;44.534;18.700;2023-02-19T07:07:21;127.75;;;74.97;;
25511;SDS011;13414;44.534;18.700;2023-02-19T07:09:50;126.72;;;73.47;;
25511;SDS011;13414;44.534;18.700;2023-02-19T07:12:18;128.85;;;76.18;;
25511;SDS011;13414;44.534;18.700;2023-02-19T07:14:45;135.10;;;79.78;;
25511;SDS011;13414;44.534;18.700;2023-02-19T07:17:12;142.48;;;84.60;;
25511;SDS011;13414;44.534;18.700;2023-02-19T07:19:40;146.30;;;83.82;;
25511;SDS011;13414;44.534;18.700;2023-02-19T07:22:07;138.65;;;83.63;;
25511;SDS011;13414;44.534;18.700;2023-02-19T07:24:35;144.20;;;84.80;;
25511;SDS011;13414;44.534;18.700;2023-02-19T07:27:03;138.13;;;84.15;;
25511;SDS011;13414;44.534;18.700;2023-02-19T07:29:31;142.95;;;84.18;;
25511;SDS011;13414;44.534;18.700;2023-02-19T07:31:58;138.68;;;85.72;;
25511;SDS011;13414;44.534;18.700;2023-02-19T07:34:26;141.50;;;84.60;;
25511;SDS011;13414;44.534;18.700;2023-02-19T07:36:53;138.13;;;84.13;;
25511;SDS011;13414;44.534;18.700;2023-02-19T07:39:21;117.97;;;72.30;;
25511;SDS011;13414;44.534;18.700;2023-02-19T07:41:48;130.35;;;78.85;;
25511;SDS011;13414;44.534;18.700;2023-02-19T07:44:26;114.00;;;72.03;;
25511;SDS011;13414;44.534;18.700;2023-02-19T07:46:56;129.82;;;76.80;;
25511;SDS011;13414;44.534;18.700;2023-02-19T07:49:23;118.30;;;73.07;;
25511;SDS011;13414;44.534;18.700;2023-02-19T07:51:51;109.88;;;71.60;;
25511;SDS011;13414;44.534;18.700;2023-02-19T07:54:18;112.07;;;70.63;;
25511;SDS011;13414;44.534;18.700;2023-02-19T07:56:46;98.43;;;62.65;;
25511;SDS011;13414;44.534;18.700;2023-02-19T07:59:14;112.28;;;72.20;;
25511;SDS011;13414;44.534;18.700;2023-02-19T08:01:45;94.57;;;61.05;;
25511;SDS011;13414;44.534;18.700;2023-02-19T08:04:30;98.70;;;63.97;;
25511;SDS011;13414;44.534;18.700;2023-02-19T08:06:57;93.47;;;60.50;;
25511;SDS011;13414;44.534;18.700;2023-02-19T08:09:24;85.90;;;57.92;;
25511;SDS011;13414;44.534;18.700;2023-02-19T08:11:55;71.93;;;48.00;;
25511;SDS011;13414;44.534;18.700;2023-02-19T08:14:39;77.80;;;50.65;;
25511;SDS011;13414;44.534;18.700;2023-02-19T08:17:11;81.57;;;52.42;;
25511;SDS011;13414;44.534;18.700;2023-02-19T08:19:39;81.60;;;54.97;;
25511;SDS011;13414;44.534;18.700;2023-02-19T08:22:06;68.15;;;47.25;;
25511;SDS011;13414;44.534;18.700;2023-02-19T08:24:33;69.57;;;45.25;;
25511;SDS011;13414;44.534;18.700;2023-02-19T08:27:03;72.63;;;48.38;;
25511;SDS011;13414;44.534;18.700;2023-02-19T08:29:31;68.57;;;45.85;;
25511;SDS011;13414;44.534;18.700;2023-02-19T08:31:59;71.85;;;46.75;;
25511;SDS011;13414;44.534;18.700;2023-02-19T08:34:28;63.38;;;43.42;;
25511;SDS011;13414;44.534;18.700;2023-02-19T08:36:56;63.78;;;44.05;;
25511;SDS011;13414;44.534;18.700;2023-02-19T08:39:23;55.17;;;40.45;;
25511;SDS011;13414;44.534;18.700;2023-02-19T08:41:51;52.22;;;36.17;;
25511;SDS011;13414;44.534;18.700;2023-02-19T08:44:18;48.58;;;31.17;;
25511;SDS011;13414;44.534;18.700;2023-02-19T08:46:45;44.90;;;32.08;;
25511;SDS011;13414;44.534;18.700;2023-02-19T08:49:13;57.70;;;35.83;;
25511;SDS011;13414;44.534;18.700;2023-02-19T08:51:42;45.25;;;31.85;;
25511;SDS011;13414;44.534;18.700;2023-02-19T08:54:10;50.90;;;35.33;;
25511;SDS011;13414;44.534;18.700;2023-02-19T08:56:37;47.22;;;31.17;;
25511;SDS011;13414;44.534;18.700;2023-02-19T08:59:04;40.80;;;29.73;;
25511;SDS011;13414;44.534;18.700;2023-02-19T09:01:32;44.13;;;30.45;;
25511;SDS011;13414;44.534;18.700;2023-02-19T09:03:59;49.15;;;32.40;;
25511;SDS011;13414;44.534;18.700;2023-02-19T09:06:27;46.50;;;33.45;;
25511;SDS011;13414;44.534;18.700;2023-02-19T09:08:56;47.03;;;32.33;;
25511;SDS011;13414;44.534;18.700;2023-02-19T09:11:23;45.72;;;32.20;;
25511;SDS011;13414;44.534;18.700;2023-02-19T09:13:51;53.15;;;35.13;;
25511;SDS011;13414;44.534;18.700;2023-02-19T09:16:21;59.13;;;35.33;;
25511;SDS011;13414;44.534;18.700;2023-02-19T09:18:48;50.63;;;33.45;;
25511;SDS011;13414;44.534;18.700;2023-02-19T09:21:16;45.38;;;31.10;;
25511;SDS011;13414;44.534;18.700;2023-02-19T09:23:43;61.75;;;33.20;;
25511;SDS011;13414;44.534;18.700;2023-02-19T09:26:12;57.40;;;36.78;;
25511;SDS011;13414;44.534;18.700;2023-02-19T09:28:39;59.40;;;39.75;;
25511;SDS011;13414;44.534;18.700;2023-02-19T09:31:09;70.90;;;46.65;;
25511;SDS011;13414;44.534;18.700;2023-02-19T09:33:40;71.78;;;45.78;;
25511;SDS011;13414;44.534;18.700;2023-02-19T09:36:09;70.82;;;46.10;;
25511;SDS011;13414;44.534;18.700;2023-02-19T09:38:37;61.25;;;38.78;;
25511;SDS011;13414;44.534;18.700;2023-02-19T09:41:05;60.28;;;39.25;;
25511;SDS011;13414;44.534;18.700;2023-02-19T09:43:37;56.35;;;37.20;;
25511;SDS011;13414;44.534;18.700;2023-02-19T09:46:05;37.03;;;24.40;;
25511;SDS011;13414;44.534;18.700;2023-02-19T09:48:43;28.08;;;16.80;;
25511;SDS011;13414;44.534;18.700;2023-02-19T09:51:11;34.17;;;20.52;;
25511;SDS011;13414;44.534;18.700;2023-02-19T09:53:40;35.42;;;20.83;;
25511;SDS011;13414;44.534;18.700;2023-02-19T09:56:11;30.20;;;21.60;;
25511;SDS011;13414;44.534;18.700;2023-02-19T09:58:42;30.23;;;19.90;;
25511;SDS011;13414;44.534;18.700;2023-02-19T10:01:13;33.17;;;20.53;;
25511;SDS011;13414;44.534;18.700;2023-02-19T10:03:42;32.45;;;21.55;;
25511;SDS011;13414;44.534;18.700;2023-02-19T10:06:13;31.02;;;20.98;;
25511;SDS011;13414;44.534;18.700;2023-02-19T10:08:46;34.70;;;21.42;;
25511;SDS011;13414;44.534;18.700;2023-02-19T10:11:15;31.25;;;21.42;;
25511;SDS011;13414;44.534;18.700;2023-02-19T10:13:46;33.88;;;21.88;;
25511;SDS011;13414;44.534;18.700;2023-02-19T10:16:16;32.50;;;20.55;;
25511;SDS011;13414;44.534;18.700;2023-02-19T10:18:48;27.98;;;16.33;;
25511;SDS011;13414;44.534;18.700;2023-02-19T10:21:16;25.60;;;16.13;;
25511;SDS011;13414;44.534;18.700;2023-02-19T10:23:45;26.40;;;17.40;;
25511;SDS011;13414;44.534;18.700;2023-02-19T10:26:14;31.60;;;21.80;;
25511;SDS011;13414;44.534;18.700;2023-02-19T10:28:42;25.35;;;15.65;;
25511;SDS011;13414;44.534;18.700;2023-02-19T10:31:13;26.77;;;18.58;;
25511;SDS011;13414;44.534;18.700;2023-02-19T10:33:47;25.27;;;17.90;;
25511;SDS011;13414;44.534;18.700;2023-02-19T10:36:18;26.77;;;16.90;;
25511;SDS011;13414;44.534;18.700;2023-02-19T10:38:52;26.33;;;17.05;;
25511;SDS011;13414;44.534;18.700;2023-02-19T10:41:20;41.28;;;27.33;;
25511;SDS011;13414;44.534;18.700;2023-02-19T10:43:51;25.67;;;17.73;;
25511;SDS011;13414;44.534;18.700;2023-02-19T10:46:23;26.52;;;19.23;;
25511;SDS011;13414;44.534;18.700;2023-02-19T10:48:53;30.42;;;19.60;;
25511;SDS011;13414;44.534;18.700;2023-02-19T10:51:28;21.50;;;15.40;;
25511;SDS011;13414;44.534;18.700;2023-02-19T10:54:03;23.50;;;16.25;;
25511;SDS011;13414;44.534;18.700;2023-02-19T10:56:32;24.42;;;16.80;;
25511;SDS011;13414;44.534;18.700;2023-02-19T10:59:20;26.05;;;16.65;;
25511;SDS011;13414;44.534;18.700;2023-02-19T11:01:59;23.75;;;16.45;;
25511;SDS011;13414;44.534;18.700;2023-02-19T11:04:31;23.92;;;14.77;;
25511;SDS011;13414;44.534;18.700;2023-02-19T11:07:06;19.65;;;12.25;;
25511;SDS011;13414;44.534;18.700;2023-02-19T11:09:36;17.58;;;11.52;;
25511;SDS011;13414;44.534;18.700;2023-02-19T11:12:05;20.80;;;12.77;;
25511;SDS011;13414;44.534;18.700;2023-02-19T11:14:33;21.42;;;11.38;;
25511;SDS011;13414;44.534;18.700;2023-02-19T11:17:02;20.23;;;14.90;;
25511;SDS011;13414;44.534;18.700;2023-02-19T11:19:33;18.20;;;11.85;;
25511;SDS011;13414;44.534;18.700;2023-02-19T11:22:17;23.48;;;13.73;;
25511;SDS011;13414;44.534;18.700;2023-02-19T11:24:47;18.80;;;11.85;;
25511;SDS011;13414;44.534;18.700;2023-02-19T11:27:16;17.48;;;11.60;;
25511;SDS011;13414;44.534;18.700;2023-02-19T11:29:45;36.95;;;26.48;;
25511;SDS011;13414;44.534;18.700;2023-02-19T11:32:22;20.65;;;14.80;;
25511;SDS011;13414;44.534;18.700;2023-02-19T11:34:51;12.82;;;9.15;;
25511;SDS011;13414;44.534;18.700;2023-02-19T11:37:41;11.48;;;8.50;;
25511;SDS011;13414;44.534;18.700;2023-02-19T11:40:20;16.15;;;9.73;;
25511;SDS011;13414;44.534;18.700;2023-02-19T11:42:53;16.75;;;10.40;;
25511;SDS011;13414;44.534;18.700;2023-02-19T11:45:33;15.95;;;9.65;;
25511;SDS011;13414;44.534;18.700;2023-02-19T11:48:09;14.32;;;9.60;;
25511;SDS011;13414;44.534;18.700;2023-02-19T11:50:51;14.70;;;9.85;;
25511;SDS011;13414;44.534;18.700;2023-02-19T11:53:29;15.93;;;10.98;;
25511;SDS011;13414;44.534;18.700;2023-02-19T11:56:05;19.83;;;13.52;;
25511;SDS011;13414;44.534;18.700;2023-02-19T12:04:40;16.90;;;10.38;;
25511;SDS011;13414;44.534;18.700;2023-02-19T12:07:41;15.75;;;9.65;;
25511;SDS011;13414;44.534;18.700;2023-02-19T12:10:20;12.77;;;7.80;;
25511;SDS011;13414;44.534;18.700;2023-02-19T12:12:56;13.48;;;7.97;;
25511;SDS011;13414;44.534;18.700;2023-02-19T12:15:38;16.27;;;8.85;;
25511;SDS011;13414;44.534;18.700;2023-02-19T12:18:18;18.33;;;9.23;;
25511;SDS011;13414;44.534;18.700;2023-02-19T12:21:12;14.68;;;8.82;;
25511;SDS011;13414;44.534;18.700;2023-02-19T12:24:00;11.93;;;8.68;;
25511;SDS011;13414;44.534;18.700;2023-02-19T12:26:45;16.85;;;9.43;;
25511;SDS011;13414;44.534;18.700;2023-02-19T12:29:30;15.60;;;9.82;;
25511;SDS011;13414;44.534;18.700;2023-02-19T12:38:13;17.98;;;8.60;;
25511;SDS011;13414;44.534;18.700;2023-02-19T12:40:50;15.80;;;10.38;;
25511;SDS011;13414;44.534;18.700;2023-02-19T12:43:29;17.10;;;8.63;;
25511;SDS011;13414;44.534;18.700;2023-02-19T12:45:59;12.18;;;8.65;;
25511;SDS011;13414;44.534;18.700;2023-02-19T12:48:30;15.20;;;11.02;;
25511;SDS011;13414;44.534;18.700;2023-02-19T12:51:03;20.70;;;12.02;;
25511;SDS011;13414;44.534;18.700;2023-02-19T12:53:41;17.20;;;10.68;;
25511;SDS011;13414;44.534;18.700;2023-02-19T12:56:16;14.30;;;8.82;;
25511;SDS011;13414;44.534;18.700;2023-02-19T12:58:47;14.80;;;8.98;;
25511;SDS011;13414;44.534;18.700;2023-02-19T13:01:18;16.83;;;9.65;;
25511;SDS011;13414;44.534;18.700;2023-02-19T13:03:50;17.58;;;10.80;;
25511;SDS011;13414;44.534;18.700;2023-02-19T13:06:30;14.48;;;11.02;;
25511;SDS011;13414;44.534;18.700;2023-02-19T13:09:05;16.77;;;10.55;;
25511;SDS011;13414;44.534;18.700;2023-02-19T13:11:38;16.05;;;10.95;;
25511;SDS011;13414;44.534;18.700;2023-02-19T13:14:13;16.85;;;11.40;;
25511;SDS011;13414;44.534;18.700;2023-02-19T13:16:47;14.98;;;8.43;;
25511;SDS011;13414;44.534;18.700;2023-02-19T13:19:18;11.77;;;8.57;;
25511;SDS011;13414;44.534;18.700;2023-02-19T13:21:46;12.65;;;8.15;;
25511;SDS011;13414;44.534;18.700;2023-02-19T13:24:39;13.05;;;8.95;;
25511;SDS011;13414;44.534;18.700;2023-02-19T13:30:11;12.50;;;8.48;;
25511;SDS011;13414;44.534;18.700;2023-02-19T13:32:56;11.68;;;8.30;;
25511;SDS011;13414;44.534;18.700;2023-02-19T13:38:30;12.90;;;8.95;;
25511;SDS011;13414;44.534;18.700;2023-02-19T13:41:00;11.68;;;8.02;;
25511;SDS011;13414;44.534;18.700;2023-02-19T13:43:29;13.52;;;8.93;;
25511;SDS011;13414;44.534;18.700;2023-02-19T13:46:00;11.60;;;8.90;;
25511;SDS011;13414;44.534;18.700;2023-02-19T13:54:19;16.20;;;9.63;;
25511;SDS011;13414;44.534;18.700;2023-02-19T13:56:51;10.80;;;7.80;;
25511;SDS011;13414;44.534;18.700;2023-02-19T14:00:01;16.17;;;11.85;;
25511;SDS011;13414;44.534;18.700;2023-02-19T14:02:48;14.10;;;8.43;;
25511;SDS011;13414;44.534;18.700;2023-02-19T14:05:15;14.52;;;9.32;;
25511;SDS011;13414;44.534;18.700;2023-02-19T14:11:12;14.00;;;8.85;;
25511;SDS011;13414;44.534;18.700;2023-02-19T14:13:56;13.23;;;9.35;;
25511;SDS011;13414;44.534;18.700;2023-02-19T14:25:40;14.45;;;9.90;;
25511;SDS011;13414;44.534;18.700;2023-02-19T14:28:30;15.60;;;10.32;;
25511;SDS011;13414;44.534;18.700;2023-02-19T14:31:07;12.20;;;8.65;;
25511;SDS011;13414;44.534;18.700;2023-02-19T14:33:42;16.02;;;10.18;;
25511;SDS011;13414;44.534;18.700;2023-02-19T14:36:15;12.82;;;9.35;;
25511;SDS011;13414;44.534;18.700;2023-02-19T14:38:49;17.90;;;11.55;;
25511;SDS011;13414;44.534;18.700;2023-02-19T14:41:20;15.95;;;11.48;;
25511;SDS011;13414;44.534;18.700;2023-02-19T14:43:49;18.33;;;12.40;;
25511;SDS011;13414;44.534;18.700;2023-02-19T14:46:21;15.65;;;11.75;;
25511;SDS011;13414;44.534;18.700;2023-02-19T14:48:54;15.38;;;10.23;;
25511;SDS011;13414;44.534;18.700;2023-02-19T14:51:29;16.60;;;11.95;;
25511;SDS011;13414;44.534;18.700;2023-02-19T14:54:01;17.17;;;11.13;;
25511;SDS011;13414;44.534;18.700;2023-02-19T14:59:07;16.73;;;11.55;;
25511;SDS011;13414;44.534;18.700;2023-02-19T15:01:52;20.23;;;10.68;;
25511;SDS011;13414;44.534;18.700;2023-02-19T15:04:26;15.40;;;9.57;;
25511;SDS011;13414;44.534;18.700;2023-02-19T15:06:56;15.20;;;9.40;;
25511;SDS011;13414;44.534;18.700;2023-02-19T15:09:29;14.13;;;10.18;;
25511;SDS011;13414;44.534;18.700;2023-02-19T15:11:59;14.43;;;8.88;;
25511;SDS011;13414;44.534;18.700;2023-02-19T15:14:28;14.13;;;8.65;;